Time;durP1;ratioP1;P1;durP2;ratioP2;P2;SDS_P1;SDS_P2;PMS_P1;PMS_P2;Temp;Humidity;BMP_temperature;BMP_pressure;BME280_temperature;BME280_humidity;BME280_pressure;Samples;Min_cycle;Max_cycle;Signal;HPM_P1;HPM_P2
2021/11/03 00:00:40;;;;;;;;;0.00;0.00;;;;;;;;5094135;28;8797;-87
2021/11/03 00:03:06;;;;;;;;;0.00;0.00;;;;;;;;5096684;28;8790;-86
2021/11/03 00:05:31;;;;;;;;;0.00;0.00;;;;;;;;5095688;28;8801;-85
2021/11/03 00:07:57;;;;;;;;;0.00;0.00;;;;;;;;5096589;28;8798;-85
2021/11/03 00:10:23;;;;;;;;;0.00;0.00;;;;;;;;5094733;28;8864;-86
2021/11/03 00:12:48;;;;;;;;;0.00;0.00;;;;;;;;5096232;28;9756;-87
2021/11/03 00:15:14;;;;;;;;;0.00;0.00;;;;;;;;5094542;28;9068;-86
2021/11/03 00:17:39;;;;;;;;;0.00;0.00;;;;;;;;5094732;28;8821;-88
2021/11/03 00:20:06;;;;;;;;;0.00;0.00;;;;;;;;5095055;28;8875;-88
2021/11/03 00:22:31;;;;;;;;;0.00;0.00;;;;;;;;5095950;28;8789;-87
2021/11/03 00:24:57;;;;;;;;;0.00;0.00;;;;;;;;5096094;28;8829;-88
2021/11/03 00:27:22;;;;;;;;;0.00;0.00;;;;;;;;5082454;28;8801;-87
2021/11/03 00:29:47;;;;;;;;;0.00;0.00;;;;;;;;5090867;28;8921;-86
2021/11/03 00:32:14;;;;;;;;;0.00;0.00;;;;;;;;5094910;28;8805;-86
2021/11/03 00:34:40;;;;;;;;;0.00;0.00;;;;;;;;5095527;28;8774;-87
2021/11/03 00:37:05;;;;;;;;;0.00;0.00;;;;;;;;5099628;28;9620;-89
2021/11/03 00:39:30;;;;;;;;;0.00;0.00;;;;;;;;5095642;28;9615;-87
2021/11/03 00:41:57;;;;;;;;;0.00;0.00;;;;;;;;5095798;28;8818;-87
2021/11/03 00:44:22;;;;;;;;;0.00;0.00;;;;;;;;5094288;28;9241;-87
2021/11/03 00:46:48;;;;;;;;;0.00;0.00;;;;;;;;5095336;28;8806;-86
2021/11/03 00:49:14;;;;;;;;;0.00;0.00;;;;;;;;5096109;28;8794;-85
2021/11/03 00:51:39;;;;;;;;;0.00;0.00;;;;;;;;5095109;28;9498;-85
2021/11/03 00:54:05;;;;;;;;;0.00;0.00;;;;;;;;5095944;28;8798;-85
2021/11/03 00:56:30;;;;;;;;;0.00;0.00;;;;;;;;5093955;28;8821;-85
2021/11/03 00:58:55;;;;;;;;;0.00;0.00;;;;;;;;5096041;28;8821;-84
2021/11/03 01:01:21;;;;;;;;;0.00;0.00;;;;;;;;5094349;28;8909;-84
2021/11/03 01:03:47;;;;;;;;;0.00;0.00;;;;;;;;5095353;28;8908;-85
2021/11/03 01:06:12;;;;;;;;;0.00;0.00;;;;;;;;5095589;28;8911;-83
2021/11/03 01:08:37;;;;;;;;;0.00;0.00;;;;;;;;5095314;28;8822;-83
2021/11/03 01:11:03;;;;;;;;;0.00;0.00;;;;;;;;5095577;28;8790;-83
2021/11/03 01:13:28;;;;;;;;;0.00;0.00;;;;;;;;5093935;28;8833;-83
2021/11/03 01:15:57;;;;;;;;;0.00;0.00;;;;;;;;5093755;28;8915;-84
2021/11/03 01:18:23;;;;;;;;;0.00;0.00;;;;;;;;5095512;28;8786;-85
2021/11/03 01:20:49;;;;;;;;;0.00;0.00;;;;;;;;5095119;28;8794;-84
2021/11/03 01:23:14;;;;;;;;;0.00;0.00;;;;;;;;5093981;28;8841;-84
2021/11/03 01:25:40;;;;;;;;;0.00;0.00;;;;;;;;5089773;28;8808;-85
2021/11/03 01:28:06;;;;;;;;;0.00;0.00;;;;;;;;5087159;28;8813;-85
2021/11/03 01:30:31;;;;;;;;;0.00;0.00;;;;;;;;5094722;28;8794;-85
2021/11/03 01:32:57;;;;;;;;;0.00;0.00;;;;;;;;5095237;28;8899;-85
2021/11/03 01:35:23;;;;;;;;;0.00;0.00;;;;;;;;5093584;28;8821;-85
2021/11/03 01:37:50;;;;;;;;;0.00;0.00;;;;;;;;5095028;28;9561;-85
2021/11/03 01:40:17;;;;;;;;;0.00;0.00;;;;;;;;5095109;28;8794;-86
2021/11/03 01:42:42;;;;;;;;;0.00;0.00;;;;;;;;5092604;28;8828;-85
2021/11/03 01:45:09;;;;;;;;;0.00;0.00;;;;;;;;5094382;28;8853;-85
2021/11/03 01:47:46;;;;;;;;;0.00;0.00;;;;;;;;5093059;28;8772;-85
2021/11/03 01:50:21;;;;;;;;;0.00;0.00;;;;;;;;5094896;28;8820;-85
2021/11/03 01:52:48;;;;;;;;;0.00;0.00;;;;;;;;5094668;28;8798;-86
2021/11/03 01:55:14;;;;;;;;;0.00;0.00;;;;;;;;5094794;28;8832;-85
2021/11/03 01:57:46;;;;;;;;;0.00;0.00;;;;;;;;5094796;28;8786;-87
2021/11/03 02:00:15;;;;;;;;;0.00;0.00;;;;;;;;5094593;28;8820;-88
2021/11/03 02:02:42;;;;;;;;;0.00;0.00;;;;;;;;5094669;28;8809;-87
2021/11/03 02:05:08;;;;;;;;;0.00;0.00;;;;;;;;5098244;28;8863;-87
2021/11/03 02:07:34;;;;;;;;;0.00;0.00;;;;;;;;5103943;28;8782;-88
2021/11/03 02:09:59;;;;;;;;;0.00;0.00;;;;;;;;5110047;27;8813;-87
2021/11/03 02:12:26;;;;;;;;;0.00;0.00;;;;;;;;5104215;28;8807;-88
2021/11/03 02:14:53;;;;;;;;;0.00;0.00;;;;;;;;5147001;27;8802;-84
2021/11/03 02:17:19;;;;;;;;;0.00;0.00;;;;;;;;5109374;28;8803;-87
2021/11/03 02:19:45;;;;;;;;;0.00;0.00;;;;;;;;5100485;28;8826;-88
2021/11/03 02:22:16;;;;;;;;;0.00;0.00;;;;;;;;5098125;28;8812;-88
2021/11/03 02:24:41;;;;;;;;;0.00;0.00;;;;;;;;5097634;28;8896;-88
2021/11/03 02:27:07;;;;;;;;;0.00;0.00;;;;;;;;5084391;28;9655;-88
2021/11/03 02:29:32;;;;;;;;;0.00;0.00;;;;;;;;5096157;28;8845;-88
2021/11/03 02:32:10;;;;;;;;;0.00;0.00;;;;;;;;5096232;28;8818;-88
2021/11/03 02:34:35;;;;;;;;;0.00;0.00;;;;;;;;5096540;28;8810;-87
2021/11/03 02:37:20;;;;;;;;;0.00;0.00;;;;;;;;5097367;28;8826;-87
2021/11/03 02:39:49;;;;;;;;;0.00;0.00;;;;;;;;5097380;28;8837;-87
2021/11/03 02:42:14;;;;;;;;;0.00;0.00;;;;;;;;5097819;28;8831;-86
2021/11/03 02:44:41;;;;;;;;;0.00;0.00;;;;;;;;5096989;28;8827;-88
2021/11/03 02:47:07;;;;;;;;;0.00;0.00;;;;;;;;5095206;28;8898;-87
2021/11/03 02:49:34;;;;;;;;;0.00;0.00;;;;;;;;5096746;28;8802;-87
2021/11/03 02:52:00;;;;;;;;;0.00;0.00;;;;;;;;5109946;28;8838;-87
2021/11/03 02:54:25;;;;;;;;;0.00;0.00;;;;;;;;5098879;28;8833;-87
2021/11/03 02:56:57;;;;;;;;;0.00;0.00;;;;;;;;5095875;28;8973;-88
2021/11/03 02:59:25;;;;;;;;;0.00;0.00;;;;;;;;5097483;28;8797;-88
2021/11/03 03:02:00;;;;;;;;;0.00;0.00;;;;;;;;5096931;28;8814;-88
2021/11/03 03:04:26;;;;;;;;;0.00;0.00;;;;;;;;5117801;27;8801;-87
2021/11/03 03:06:51;;;;;;;;;0.00;0.00;;;;;;;;5107151;28;8817;-87
2021/11/03 03:09:17;;;;;;;;;0.00;0.00;;;;;;;;5097511;28;8834;-87
2021/11/03 03:11:46;;;;;;;;;0.00;0.00;;;;;;;;5096780;28;8941;-87
2021/11/03 03:14:11;;;;;;;;;0.00;0.00;;;;;;;;5097379;28;8774;-88
2021/11/03 03:16:37;;;;;;;;;0.00;0.00;;;;;;;;5096513;28;8938;-87
2021/11/03 03:19:03;;;;;;;;;0.00;0.00;;;;;;;;5095819;28;8928;-87
2021/11/03 03:21:29;;;;;;;;;0.00;0.00;;;;;;;;5094949;28;8912;-86
2021/11/03 03:23:55;;;;;;;;;0.00;0.00;;;;;;;;5111575;28;9724;-87
2021/11/03 03:26:21;;;;;;;;;0.00;0.00;;;;;;;;5095882;28;8844;-88
2021/11/03 03:28:47;;;;;;;;;0.00;0.00;;;;;;;;5095414;28;8903;-88
2021/11/03 03:31:13;;;;;;;;;0.00;0.00;;;;;;;;5096428;28;8790;-87
2021/11/03 03:33:38;;;;;;;;;0.00;0.00;;;;;;;;5096671;28;8786;-89
2021/11/03 03:36:04;;;;;;;;;0.00;0.00;;;;;;;;5096602;28;8829;-88
2021/11/03 03:38:30;;;;;;;;;0.00;0.00;;;;;;;;5095239;28;8828;-87
2021/11/03 03:40:56;;;;;;;;;0.00;0.00;;;;;;;;5083783;28;8827;-87
2021/11/03 03:43:21;;;;;;;;;0.00;0.00;;;;;;;;5094762;28;8825;-87
2021/11/03 03:45:47;;;;;;;;;0.00;0.00;;;;;;;;5096036;28;8856;-87
2021/11/03 03:48:12;;;;;;;;;0.00;0.00;;;;;;;;5095433;28;8814;-88
2021/11/03 03:50:38;;;;;;;;;0.00;0.00;;;;;;;;5096011;28;8786;-87
2021/11/03 03:53:04;;;;;;;;;0.00;0.00;;;;;;;;5096812;28;8794;-88
2021/11/03 03:55:29;;;;;;;;;0.00;0.00;;;;;;;;5096003;28;8914;-88
2021/11/03 03:57:55;;;;;;;;;0.00;0.00;;;;;;;;5096820;28;8802;-89
2021/11/03 04:00:20;;;;;;;;;0.00;0.00;;;;;;;;5095170;28;8810;-88
2021/11/03 04:02:46;;;;;;;;;0.00;0.00;;;;;;;;5096353;28;8821;-88
2021/11/03 04:05:12;;;;;;;;;0.00;0.00;;;;;;;;5096483;28;8810;-88
2021/11/03 04:07:37;;;;;;;;;0.00;0.00;;;;;;;;5096099;28;8826;-87
2021/11/03 04:10:04;;;;;;;;;0.00;0.00;;;;;;;;5095047;28;8818;-87
2021/11/03 04:12:29;;;;;;;;;0.00;0.00;;;;;;;;5096085;28;8789;-87
2021/11/03 04:14:55;;;;;;;;;0.00;0.00;;;;;;;;5095983;28;8849;-87
2021/11/03 04:17:20;;;;;;;;;0.00;0.00;;;;;;;;5096495;28;8810;-88
2021/11/03 04:19:45;;;;;;;;;0.00;0.00;;;;;;;;5095659;28;8814;-87
2021/11/03 04:22:11;;;;;;;;;0.00;0.00;;;;;;;;5094872;28;8920;-88
2021/11/03 04:24:36;;;;;;;;;0.00;0.00;;;;;;;;5095492;28;8879;-88
2021/11/03 04:27:01;;;;;;;;;0.00;0.00;;;;;;;;5124416;27;8829;-88
2021/11/03 04:29:27;;;;;;;;;0.00;0.00;;;;;;;;5109487;28;8813;-88
2021/11/03 04:31:53;;;;;;;;;0.00;0.00;;;;;;;;5095609;28;8826;-88
2021/11/03 04:34:19;;;;;;;;;0.00;0.00;;;;;;;;5095745;28;8829;-89
2021/11/03 04:36:44;;;;;;;;;0.00;0.00;;;;;;;;5095188;28;8816;-89
2021/11/03 04:39:10;;;;;;;;;0.00;0.00;;;;;;;;5094446;28;9585;-88
2021/11/03 04:41:36;;;;;;;;;0.00;0.00;;;;;;;;5095141;28;8781;-88
2021/11/03 04:44:02;;;;;;;;;0.00;0.00;;;;;;;;5085453;28;8800;-88
2021/11/03 04:46:27;;;;;;;;;0.00;0.00;;;;;;;;5087855;28;8798;-87
2021/11/03 04:48:52;;;;;;;;;0.00;0.00;;;;;;;;5063804;28;8815;-88
2021/11/03 04:51:18;;;;;;;;;0.00;0.00;;;;;;;;5065156;28;9569;-88
2021/11/03 04:53:43;;;;;;;;;0.00;0.00;;;;;;;;5088362;28;8895;-88
2021/11/03 04:56:10;;;;;;;;;0.00;0.00;;;;;;;;5088291;28;8818;-88
2021/11/03 04:58:36;;;;;;;;;0.00;0.00;;;;;;;;5063249;28;8780;-87
2021/11/03 05:01:01;;;;;;;;;0.00;0.00;;;;;;;;5061026;28;9562;-88
2021/11/03 05:03:27;;;;;;;;;0.00;0.00;;;;;;;;5052546;28;8811;-88
2021/11/03 05:05:53;;;;;;;;;0.00;0.00;;;;;;;;5067094;28;8817;-88
2021/11/03 05:08:19;;;;;;;;;0.00;0.00;;;;;;;;5088431;28;8908;-88
2021/11/03 05:10:44;;;;;;;;;0.00;0.00;;;;;;;;5088284;28;8977;-88
2021/11/03 05:13:10;;;;;;;;;0.00;0.00;;;;;;;;5081876;28;8806;-89
2021/11/03 05:15:35;;;;;;;;;0.00;0.00;;;;;;;;5060017;28;8827;-89
2021/11/03 05:18:01;;;;;;;;;0.00;0.00;;;;;;;;5080197;28;8803;-89
2021/11/03 05:20:27;;;;;;;;;0.00;0.00;;;;;;;;5082277;28;8804;-89
2021/11/03 05:22:53;;;;;;;;;0.00;0.00;;;;;;;;5062834;28;8956;-90
2021/11/03 05:25:20;;;;;;;;;0.00;0.00;;;;;;;;5061252;28;8825;-89
2021/11/03 05:27:46;;;;;;;;;0.00;0.00;;;;;;;;5065752;28;8891;-90
2021/11/03 05:30:12;;;;;;;;;0.00;0.00;;;;;;;;5084509;28;8789;-90
2021/11/03 05:32:37;;;;;;;;;0.00;0.00;;;;;;;;5068305;28;8839;-90
2021/11/03 05:35:03;;;;;;;;;0.00;0.00;;;;;;;;5065762;28;8836;-90
2021/11/03 05:37:28;;;;;;;;;0.00;0.00;;;;;;;;5086486;28;8790;-89
2021/11/03 05:39:53;;;;;;;;;0.00;0.00;;;;;;;;5076587;28;8849;-90
2021/11/03 05:42:19;;;;;;;;;0.00;0.00;;;;;;;;5086952;28;8791;-90
2021/11/03 05:44:45;;;;;;;;;0.00;0.00;;;;;;;;5086146;28;8910;-89
2021/11/03 05:47:12;;;;;;;;;0.00;0.00;;;;;;;;5094856;28;8824;-91
2021/11/03 05:49:38;;;;;;;;;0.00;0.00;;;;;;;;5092812;28;9739;-89
2021/11/03 05:52:04;;;;;;;;;0.00;0.00;;;;;;;;5093488;28;8817;-90
2021/11/03 05:54:30;;;;;;;;;0.00;0.00;;;;;;;;5093149;28;8914;-89
2021/11/03 05:56:57;;;;;;;;;0.00;0.00;;;;;;;;5095012;28;8802;-89
2021/11/03 05:59:23;;;;;;;;;0.00;0.00;;;;;;;;5093460;28;8806;-90
2021/11/03 06:01:49;;;;;;;;;0.00;0.00;;;;;;;;5092732;28;8837;-90
2021/11/03 06:04:15;;;;;;;;;0.00;0.00;;;;;;;;5094726;28;8828;-91
2021/11/03 06:06:40;;;;;;;;;0.00;0.00;;;;;;;;5093163;28;8793;-90
2021/11/03 06:09:08;;;;;;;;;0.00;0.00;;;;;;;;5094562;28;8928;-90
2021/11/03 06:11:35;;;;;;;;;0.00;0.00;;;;;;;;5094527;28;8774;-91
2021/11/03 06:14:00;;;;;;;;;0.00;0.00;;;;;;;;5081114;28;8806;-90
2021/11/03 06:16:26;;;;;;;;;0.00;0.00;;;;;;;;5093029;28;8900;-90
2021/11/03 06:18:51;;;;;;;;;0.00;0.00;;;;;;;;5080846;28;8790;-90
2021/11/03 06:21:17;;;;;;;;;0.00;0.00;;;;;;;;5092897;28;8845;-90
2021/11/03 06:23:42;;;;;;;;;0.00;0.00;;;;;;;;5077396;28;8820;-89
2021/11/03 06:26:08;;;;;;;;;0.00;0.00;;;;;;;;5083726;28;8793;-89
2021/11/03 06:28:33;;;;;;;;;0.00;0.00;;;;;;;;5129824;27;9512;-89
2021/11/03 06:30:58;;;;;;;;;0.00;0.00;;;;;;;;5099291;28;8813;-89
2021/11/03 06:33:24;;;;;;;;;0.00;0.00;;;;;;;;5094256;28;8798;-90
2021/11/03 06:35:50;;;;;;;;;0.00;0.00;;;;;;;;5093800;28;8809;-89
2021/11/03 06:38:15;;;;;;;;;0.00;0.00;;;;;;;;5094053;28;8782;-88
2021/11/03 06:40:42;;;;;;;;;0.00;0.00;;;;;;;;5093957;28;8861;-88
2021/11/03 06:43:08;;;;;;;;;0.00;0.00;;;;;;;;5093610;28;8809;-88
2021/11/03 06:45:33;;;;;;;;;0.00;0.00;;;;;;;;5092366;28;8829;-89
2021/11/03 06:47:58;;;;;;;;;0.00;0.00;;;;;;;;5094222;28;8830;-88
2021/11/03 06:50:25;;;;;;;;;0.00;0.00;;;;;;;;5092454;28;8813;-88
2021/11/03 06:52:51;;;;;;;;;0.00;0.00;;;;;;;;5093585;28;8790;-90
2021/11/03 06:55:17;;;;;;;;;0.00;0.00;;;;;;;;5094170;28;8833;-89
2021/11/03 06:57:42;;;;;;;;;0.00;0.00;;;;;;;;5090627;28;8894;-88
2021/11/03 07:00:09;;;;;;;;;0.00;0.00;;;;;;;;5096407;28;8789;-89
2021/11/03 07:02:34;;;;;;;;;0.00;0.00;;;;;;;;5096737;28;9654;-88
2021/11/03 07:05:00;;;;;;;;;0.00;0.00;;;;;;;;5097440;28;8809;-86
2021/11/03 07:07:25;;;;;;;;;0.00;0.00;;;;;;;;5097320;28;8861;-86
2021/11/03 07:09:50;;;;;;;;;0.00;0.00;;;;;;;;5103215;28;8848;-85
2021/11/03 07:12:15;;;;;;;;;0.00;0.00;;;;;;;;5097301;28;8810;-85
2021/11/03 07:14:41;;;;;;;;;0.00;0.00;;;;;;;;5096245;28;11515;-85
2021/11/03 07:17:11;;;;;;;;;0.00;0.00;;;;;;;;5112728;27;8883;-85
2021/11/03 07:19:36;;;;;;;;;0.00;0.00;;;;;;;;5097191;28;8774;-86
2021/11/03 07:22:01;;;;;;;;;0.00;0.00;;;;;;;;5096633;28;8856;-84
2021/11/03 07:24:27;;;;;;;;;0.00;0.00;;;;;;;;5096696;28;8929;-85
2021/11/03 07:26:52;;;;;;;;;0.00;0.00;;;;;;;;5096331;28;8857;-87
2021/11/03 07:29:17;;;;;;;;;0.00;0.00;;;;;;;;5095439;28;8926;-86
2021/11/03 07:31:43;;;;;;;;;0.00;0.00;;;;;;;;5095360;28;8802;-86
2021/11/03 07:34:08;;;;;;;;;0.00;0.00;;;;;;;;5098285;28;8825;-86
2021/11/03 07:36:34;;;;;;;;;0.00;0.00;;;;;;;;5095926;28;8848;-86
2021/11/03 07:38:59;;;;;;;;;0.00;0.00;;;;;;;;5084903;28;8810;-85
2021/11/03 07:41:25;;;;;;;;;0.00;0.00;;;;;;;;5095432;28;9549;-85
2021/11/03 07:43:51;;;;;;;;;0.00;0.00;;;;;;;;5102017;27;8822;-84
2021/11/03 07:46:17;;;;;;;;;0.00;0.00;;;;;;;;5096444;28;8912;-86
2021/11/03 07:48:43;;;;;;;;;0.00;0.00;;;;;;;;5096216;28;8798;-87
2021/11/03 07:51:11;;;;;;;;;0.00;0.00;;;;;;;;5096051;28;8875;-86
2021/11/03 07:53:37;;;;;;;;;0.00;0.00;;;;;;;;5094349;28;8824;-86
2021/11/03 07:56:05;;;;;;;;;0.00;0.00;;;;;;;;5096407;28;8841;-86
2021/11/03 07:58:32;;;;;;;;;0.00;0.00;;;;;;;;5096172;28;8790;-87
2021/11/03 08:00:58;;;;;;;;;0.00;0.00;;;;;;;;5096300;28;8963;-87
2021/11/03 08:03:24;;;;;;;;;0.00;0.00;;;;;;;;5103048;28;8811;-89
2021/11/03 08:05:50;;;;;;;;;0.00;0.00;;;;;;;;5101667;28;8859;-82
2021/11/03 08:08:17;;;;;;;;;0.00;0.00;;;;;;;;5095380;28;8810;-87
2021/11/03 08:10:43;;;;;;;;;0.00;0.00;;;;;;;;5095270;28;8782;-86
2021/11/03 08:13:13;;;;;;;;;0.00;0.00;;;;;;;;5096542;28;8841;-87
2021/11/03 08:15:38;;;;;;;;;0.00;0.00;;;;;;;;5095586;28;8833;-86
2021/11/03 08:18:04;;;;;;;;;0.00;0.00;;;;;;;;5096538;28;8806;-85
2021/11/03 08:20:30;;;;;;;;;0.00;0.00;;;;;;;;5095669;28;8786;-93
2021/11/03 08:22:56;;;;;;;;;0.00;0.00;;;;;;;;5095146;28;8834;-87
2021/11/03 08:25:22;;;;;;;;;0.00;0.00;;;;;;;;5082619;28;8786;-89
2021/11/03 08:27:48;;;;;;;;;0.00;0.00;;;;;;;;5095235;28;9552;-89
2021/11/03 08:30:15;;;;;;;;;0.00;0.00;;;;;;;;5094348;28;8829;-86
2021/11/03 08:32:47;;;;;;;;;0.00;0.00;;;;;;;;5100243;28;8774;-87
2021/11/03 08:35:13;;;;;;;;;0.00;0.00;;;;;;;;5095030;27;8844;-88
2021/11/03 08:37:39;;;;;;;;;0.00;0.00;;;;;;;;5094225;28;8797;-86
2021/11/03 08:40:07;;;;;;;;;0.00;0.00;;;;;;;;5093955;28;8822;-88
2021/11/03 08:42:32;;;;;;;;;0.00;0.00;;;;;;;;5088533;28;8822;-88
2021/11/03 08:44:58;;;;;;;;;0.00;0.00;;;;;;;;5096780;28;8826;-87
2021/11/03 08:47:24;;;;;;;;;0.00;0.00;;;;;;;;5111391;27;8840;-88
2021/11/03 08:49:49;;;;;;;;;0.00;0.00;;;;;;;;5095159;28;8848;-90
2021/11/03 08:52:15;;;;;;;;;0.00;0.00;;;;;;;;5093952;28;8801;-89
2021/11/03 08:54:41;;;;;;;;;0.00;0.00;;;;;;;;5093783;28;8817;-89
2021/11/03 08:57:07;;;;;;;;;0.00;0.00;;;;;;;;5095462;28;8808;-92
2021/11/03 08:59:32;;;;;;;;;0.00;0.00;;;;;;;;5110576;27;8806;-88
2021/11/03 09:01:58;;;;;;;;;0.00;0.00;;;;;;;;5092287;28;8913;-93
2021/11/03 09:04:23;;;;;;;;;0.00;0.00;;;;;;;;5094943;28;8803;-86
2021/11/03 09:06:49;;;;;;;;;0.00;0.00;;;;;;;;5094383;28;8852;-88
2021/11/03 09:09:14;;;;;;;;;0.00;0.00;;;;;;;;5093594;28;8845;-86
2021/11/03 09:11:39;;;;;;;;;0.00;0.00;;;;;;;;5094365;28;8906;-87
2021/11/03 09:14:05;;;;;;;;;0.00;0.00;;;;;;;;5099530;28;8862;-86
2021/11/03 09:16:31;;;;;;;;;0.00;0.00;;;;;;;;5108995;27;9051;-87
2021/11/03 09:18:56;;;;;;;;;0.00;0.00;;;;;;;;5093838;28;8846;-82
2021/11/03 09:21:22;;;;;;;;;0.00;0.00;;;;;;;;5103963;28;8813;-83
2021/11/03 09:23:47;;;;;;;;;0.00;0.00;;;;;;;;5091986;28;8829;-83
2021/11/03 09:26:17;;;;;;;;;0.00;0.00;;;;;;;;5092892;28;8829;-84
2021/11/03 09:28:44;;;;;;;;;0.00;0.00;;;;;;;;5094335;28;8820;-84
2021/11/03 09:31:10;;;;;;;;;0.00;0.00;;;;;;;;5088776;28;8789;-84
2021/11/03 09:33:36;;;;;;;;;0.00;0.00;;;;;;;;5083481;28;8898;-85
2021/11/03 09:36:04;;;;;;;;;0.00;0.00;;;;;;;;5095004;28;9471;-85
2021/11/03 09:38:32;;;;;;;;;0.00;0.00;;;;;;;;5102561;28;8791;-83
2021/11/03 09:41:00;;;;;;;;;0.00;0.00;;;;;;;;5098346;28;8793;-84
2021/11/03 09:43:48;;;;;;;;;0.00;0.00;;;;;;;;5093079;28;8762;-84
2021/11/03 09:46:35;;;;;;;;;0.00;0.00;;;;;;;;5061511;28;8906;-82
2021/11/03 09:49:00;;;;;;;;;0.00;0.00;;;;;;;;5088893;28;8942;-84
2021/11/03 09:51:27;;;;;;;;;0.00;0.00;;;;;;;;5094111;28;8914;-83
2021/11/03 09:53:55;;;;;;;;;0.00;0.00;;;;;;;;5091725;28;8835;-83
2021/11/03 09:56:35;;;;;;;;;0.00;0.00;;;;;;;;5093981;28;8883;-82
2021/11/03 09:59:21;;;;;;;;;0.00;0.00;;;;;;;;5099929;28;8830;-83
2021/11/03 10:02:10;;;;;;;;;0.00;0.00;;;;;;;;5080400;28;8818;-82
2021/11/03 10:04:36;;;;;;;;;0.00;0.00;;;;;;;;5094226;28;8814;-83
2021/11/03 10:07:07;;;;;;;;;0.00;0.00;;;;;;;;5092502;28;9736;-85
2021/11/03 10:09:36;;;;;;;;;0.00;0.00;;;;;;;;5084358;28;8898;-89
2021/11/03 10:12:02;;;;;;;;;0.00;0.00;;;;;;;;5093110;28;8782;-92
2021/11/03 10:14:28;;;;;;;;;0.00;0.00;;;;;;;;5094341;28;8781;-93
2021/11/03 10:16:55;;;;;;;;;0.00;0.00;;;;;;;;5103371;28;8945;-86
2021/11/03 10:19:23;;;;;;;;;0.00;0.00;;;;;;;;5094368;28;8886;-87
2021/11/03 10:21:53;;;;;;;;;0.00;0.00;;;;;;;;5092070;28;9800;-79
2021/11/03 10:24:20;;;;;;;;;0.00;0.00;;;;;;;;5089880;28;8884;-88
2021/11/03 10:26:48;;;;;;;;;0.00;0.00;;;;;;;;5093054;28;8806;-85
2021/11/03 10:29:16;;;;;;;;;0.00;0.00;;;;;;;;5094377;28;8894;-81
2021/11/03 10:31:41;;;;;;;;;0.00;0.00;;;;;;;;5088713;28;8808;-81
2021/11/03 10:34:25;;;;;;;;;0.00;0.00;;;;;;;;5086407;28;8848;-81
2021/11/03 10:37:08;;;;;;;;;0.00;0.00;;;;;;;;5090615;28;8836;-81
2021/11/03 10:39:44;;;;;;;;;0.00;0.00;;;;;;;;5097261;28;8825;-81
2021/11/03 10:42:15;;;;;;;;;0.00;0.00;;;;;;;;5097627;28;8862;-81
2021/11/03 10:44:41;;;;;;;;;0.00;0.00;;;;;;;;5096606;28;8824;-81
2021/11/03 10:47:15;;;;;;;;;0.00;0.00;;;;;;;;5097607;28;8955;-81
2021/11/03 10:49:48;;;;;;;;;0.00;0.00;;;;;;;;5116805;27;9390;-80
2021/11/03 10:52:14;;;;;;;;;0.00;0.00;;;;;;;;5111253;28;8838;-80
2021/11/03 10:54:44;;;;;;;;;0.00;0.00;;;;;;;;5097287;28;8855;-80
2021/11/03 10:57:35;;;;;;;;;0.00;0.00;;;;;;;;5097205;28;8790;-80
2021/11/03 11:00:17;;;;;;;;;0.00;0.00;;;;;;;;5096085;28;8833;-81
2021/11/03 11:02:50;;;;;;;;;0.00;0.00;;;;;;;;5084722;28;8786;-80
2021/11/03 11:05:20;;;;;;;;;0.00;0.00;;;;;;;;5097155;28;8812;-80
2021/11/03 11:07:49;;;;;;;;;0.00;0.00;;;;;;;;5095503;28;8813;-81
2021/11/03 11:10:20;;;;;;;;;0.00;0.00;;;;;;;;5096988;28;8810;-80
2021/11/03 11:12:47;;;;;;;;;0.00;0.00;;;;;;;;5096992;28;8885;-80
2021/11/03 11:15:13;;;;;;;;;0.00;0.00;;;;;;;;5095265;28;8813;-80
2021/11/03 11:17:58;;;;;;;;;0.00;0.00;;;;;;;;5095410;28;8822;-80
2021/11/03 11:20:30;;;;;;;;;0.00;0.00;;;;;;;;5083623;28;8798;-80
2021/11/03 11:23:05;;;;;;;;;0.00;0.00;;;;;;;;5096684;28;8976;-81
2021/11/03 11:25:33;;;;;;;;;0.00;0.00;;;;;;;;5082626;28;8925;-80
2021/11/03 11:28:21;;;;;;;;;0.00;0.00;;;;;;;;5096843;28;9662;-80
2021/11/03 11:30:52;;;;;;;;;0.00;0.00;;;;;;;;5089085;28;8899;-80
2021/11/03 11:33:26;;;;;;;;;0.00;0.00;;;;;;;;5095173;28;8824;-81
2021/11/03 11:36:06;;;;;;;;;0.00;0.00;;;;;;;;5096299;28;8750;-81
2021/11/03 11:38:40;;;;;;;;;0.00;0.00;;;;;;;;5096159;28;8809;-80
2021/11/03 11:41:10;;;;;;;;;0.00;0.00;;;;;;;;5095428;28;8904;-80
2021/11/03 11:43:38;;;;;;;;;0.00;0.00;;;;;;;;5115358;27;8807;-80
2021/11/03 11:46:20;;;;;;;;;0.00;0.00;;;;;;;;5095457;28;8844;-85
2021/11/03 11:48:50;;;;;;;;;0.00;0.00;;;;;;;;5106492;28;8782;-81
2021/11/03 11:51:24;;;;;;;;;0.00;0.00;;;;;;;;5093949;28;8790;-81
2021/11/03 11:53:52;;;;;;;;;0.00;0.00;;;;;;;;5100792;28;8788;-82
2021/11/03 11:56:25;;;;;;;;;0.00;0.00;;;;;;;;5100671;28;8846;-81
2021/11/03 11:58:52;;;;;;;;;0.00;0.00;;;;;;;;5101825;28;8815;-81
2021/11/03 12:01:19;;;;;;;;;0.00;0.00;;;;;;;;5099324;28;8840;-81
2021/11/03 12:03:50;;;;;;;;;0.00;0.00;;;;;;;;5102010;28;8814;-81
2021/11/03 12:06:16;;;;;;;;;0.00;0.00;;;;;;;;5096335;28;8778;-82
2021/11/03 12:08:48;;;;;;;;;0.00;0.00;;;;;;;;5095950;28;8805;-81
2021/11/03 12:11:18;;;;;;;;;0.00;0.00;;;;;;;;5096183;28;8774;-82
2021/11/03 12:13:43;;;;;;;;;0.00;0.00;;;;;;;;5095770;28;8863;-81
2021/11/03 12:16:15;;;;;;;;;0.00;0.00;;;;;;;;5082322;28;9028;-81
2021/11/03 12:18:45;;;;;;;;;0.00;0.00;;;;;;;;5095487;28;8798;-81
2021/11/03 12:21:33;;;;;;;;;0.00;0.00;;;;;;;;5095986;28;8762;-80
2021/11/03 12:24:07;;;;;;;;;0.00;0.00;;;;;;;;5094820;28;8816;-80
2021/11/03 12:26:40;;;;;;;;;0.00;0.00;;;;;;;;5095356;28;8801;-81
2021/11/03 12:29:15;;;;;;;;;0.00;0.00;;;;;;;;5094323;28;8825;-81
2021/11/03 12:31:46;;;;;;;;;0.00;0.00;;;;;;;;5088834;28;8798;-80
2021/11/03 12:34:16;;;;;;;;;0.00;0.00;;;;;;;;5095756;28;8746;-80
2021/11/03 12:36:59;;;;;;;;;0.00;0.00;;;;;;;;5094660;28;8801;-80
2021/11/03 12:39:45;;;;;;;;;0.00;0.00;;;;;;;;5095583;28;8783;-80
2021/11/03 12:42:31;;;;;;;;;0.00;0.00;;;;;;;;5082079;28;8900;-80
2021/11/03 12:44:59;;;;;;;;;0.00;0.00;;;;;;;;5094749;28;8790;-80
2021/11/03 12:47:28;;;;;;;;;0.00;0.00;;;;;;;;5095347;28;8822;-80
2021/11/03 12:50:06;;;;;;;;;0.00;0.00;;;;;;;;5094894;28;8777;-79
2021/11/03 12:52:32;;;;;;;;;0.00;0.00;;;;;;;;5094908;28;8886;-79
2021/11/03 12:54:59;;;;;;;;;0.00;0.00;;;;;;;;5093724;28;8833;-80
2021/11/03 12:57:25;;;;;;;;;0.00;0.00;;;;;;;;5087705;28;8798;-80
2021/11/03 12:59:58;;;;;;;;;0.00;0.00;;;;;;;;5088289;28;8832;-80
2021/11/03 13:02:25;;;;;;;;;0.00;0.00;;;;;;;;5095103;28;8794;-80
2021/11/03 13:05:09;;;;;;;;;0.00;0.00;;;;;;;;5094523;28;8806;-81
2021/11/03 13:07:38;;;;;;;;;0.00;0.00;;;;;;;;5095059;28;8899;-81
2021/11/03 13:10:16;;;;;;;;;0.00;0.00;;;;;;;;5095057;28;8932;-80
2021/11/03 13:12:50;;;;;;;;;0.00;0.00;;;;;;;;5094661;28;8777;-80
2021/11/03 13:15:21;;;;;;;;;0.00;0.00;;;;;;;;5092814;28;8799;-80
2021/11/03 13:17:52;;;;;;;;;0.00;0.00;;;;;;;;5099701;28;8786;-81
2021/11/03 13:20:29;;;;;;;;;0.00;0.00;;;;;;;;5094622;28;8774;-81
2021/11/03 13:22:54;;;;;;;;;0.00;0.00;;;;;;;;5094598;28;8794;-83
2021/11/03 13:25:26;;;;;;;;;0.00;0.00;;;;;;;;5090773;28;8822;-81
2021/11/03 13:27:53;;;;;;;;;0.00;0.00;;;;;;;;5094333;28;8928;-80
2021/11/03 13:30:27;;;;;;;;;0.00;0.00;;;;;;;;5093360;28;8915;-80
2021/11/03 13:32:55;;;;;;;;;0.00;0.00;;;;;;;;5094133;28;8797;-75
2021/11/03 13:35:22;;;;;;;;;0.00;0.00;;;;;;;;5092339;28;8839;-78
2021/11/03 13:37:55;;;;;;;;;0.00;0.00;;;;;;;;5093622;28;8811;-84
2021/11/03 13:40:24;;;;;;;;;0.00;0.00;;;;;;;;5094661;28;8770;-85
2021/11/03 13:42:56;;;;;;;;;0.00;0.00;;;;;;;;5090941;28;8793;-84
2021/11/03 13:45:21;;;;;;;;;0.00;0.00;;;;;;;;5074855;28;8812;-84
2021/11/03 13:48:05;;;;;;;;;0.00;0.00;;;;;;;;5073928;28;10037;-82
2021/11/03 13:51:14;;;;;;;;;;;;;;;;;;;;;
2021/11/03 13:54:31;;;;;;;;;;;;;;;;;;;;;
